Time;durP1;ratioP1;P1;durP2;ratioP2;P2;SDS_P1;SDS_P2;PMS_P1;PMS_P2;Temp;Humidity;BMP_temperature;BMP_pressure;BME280_temperature;BME280_humidity;BME280_pressure;Samples;Min_cycle;Max_cycle;Signal;HPM_P1;HPM_P2
2021/06/04 00:00:40;;;;;;;0.00;0.00;;;;;;;;;;5125299;28;20224;-78
2021/06/04 00:03:08;;;;;;;0.00;0.00;;;;;;;;;;5143784;27;20458;-77
2021/06/04 00:05:36;;;;;;;0.00;0.00;;;;;;;;;;5141469;27;20390;-78
2021/06/04 00:08:01;;;;;;;0.00;0.00;;;;;;;;;;5134233;27;20430;-77
2021/06/04 00:10:29;;;;;;;0.10;0.10;;;;;;;;;;5140079;27;20273;-77
2021/06/04 00:12:55;;;;;;;0.00;0.00;;;;;;;;;;5144017;27;20390;-79
2021/06/04 00:15:24;;;;;;;0.00;0.00;;;;;;;;;;5130273;27;20208;-77
2021/06/04 00:17:51;;;;;;;0.00;0.00;;;;;;;;;;5138480;27;20207;-77
2021/06/04 00:20:20;;;;;;;0.00;0.00;;;;;;;;;;5136326;27;20259;-77
2021/06/04 00:22:46;;;;;;;0.10;0.10;;;;;;;;;;5138046;27;20502;-78
2021/06/04 00:25:12;;;;;;;0.00;0.00;;;;;;;;;;5142704;27;20274;-78
2021/06/04 00:27:38;;;;;;;0.00;0.00;;;;;;;;;;5133795;27;20226;-77
2021/06/04 00:30:05;;;;;;;0.00;0.00;;;;;;;;;;5126143;28;20199;-77
2021/06/04 00:32:30;;;;;;;0.00;0.00;;;;;;;;;;5135913;28;20216;-76
2021/06/04 00:34:57;;;;;;;0.00;0.00;;;;;;;;;;5131412;28;20274;-77
2021/06/04 00:37:23;;;;;;;0.00;0.00;;;;;;;;;;5126463;28;20198;-78
2021/06/04 00:39:49;;;;;;;0.00;0.00;;;;;;;;;;5125539;28;20261;-77
2021/06/04 00:42:16;;;;;;;0.10;0.10;;;;;;;;;;5128722;28;20253;-79
2021/06/04 00:44:43;;;;;;;0.10;0.10;;;;;;;;;;5134656;28;20210;-79
2021/06/04 00:47:09;;;;;;;0.08;0.08;;;;;;;;;;5137764;28;20247;-79
2021/06/04 00:49:35;;;;;;;0.00;0.00;;;;;;;;;;5132908;28;20214;-78
2021/06/04 00:52:04;;;;;;;0.00;0.00;;;;;;;;;;5144099;28;20223;-78
2021/06/04 00:54:30;;;;;;;0.00;0.00;;;;;;;;;;5137664;28;20225;-78
2021/06/04 00:56:56;;;;;;;0.00;0.00;;;;;;;;;;5130610;28;20206;-77
2021/06/04 00:59:27;;;;;;;0.00;0.00;;;;;;;;;;5144083;28;20274;-78
2021/06/04 01:01:53;;;;;;;0.00;0.00;;;;;;;;;;5137509;28;20197;-72
2021/06/04 01:04:20;;;;;;;0.05;0.05;;;;;;;;;;5141909;28;20241;-77
2021/06/04 01:06:51;;;;;;;0.10;0.10;;;;;;;;;;5126162;28;20358;-77
2021/06/04 01:09:38;;;;;;;0.00;0.00;;;;;;;;;;5136848;28;20210;-77
2021/06/04 01:12:15;;;;;;;0.00;0.00;;;;;;;;;;5128350;27;20279;-76
2021/06/04 01:14:45;;;;;;;0.00;0.00;;;;;;;;;;5143042;27;20203;-77
2021/06/04 01:17:14;;;;;;;0.00;0.00;;;;;;;;;;5142310;27;20229;-77
2021/06/04 01:19:46;;;;;;;0.08;0.08;;;;;;;;;;5143510;27;20230;-78
2021/06/04 01:22:18;;;;;;;0.05;0.05;;;;;;;;;;5140899;27;20195;-78
2021/06/04 01:24:53;;;;;;;0.10;0.10;;;;;;;;;;5128860;27;20389;-78
2021/06/04 01:27:23;;;;;;;0.00;0.00;;;;;;;;;;5132679;27;20194;-78
2021/06/04 01:29:51;;;;;;;0.00;0.00;;;;;;;;;;5136486;27;20213;-78
2021/06/04 01:32:18;;;;;;;0.00;0.00;;;;;;;;;;5136911;27;20209;-78
2021/06/04 01:34:46;;;;;;;0.00;0.00;;;;;;;;;;5131003;27;20206;-78
2021/06/04 01:37:13;;;;;;;0.00;0.00;;;;;;;;;;5140481;27;20202;-78
2021/06/04 01:39:41;;;;;;;0.13;0.13;;;;;;;;;;5138944;27;20232;-78
2021/06/04 01:42:08;;;;;;;0.00;0.00;;;;;;;;;;5134668;27;20293;-78
2021/06/04 01:44:37;;;;;;;0.00;0.00;;;;;;;;;;5133032;27;20208;-77
2021/06/04 01:47:05;;;;;;;0.00;0.00;;;;;;;;;;5138460;27;20422;-77
2021/06/04 01:49:34;;;;;;;0.00;0.00;;;;;;;;;;5141597;27;20206;-78
2021/06/04 01:52:06;;;;;;;0.10;0.10;;;;;;;;;;5128025;27;20290;-77
2021/06/04 01:54:37;;;;;;;0.10;0.10;;;;;;;;;;5134832;27;20229;-77
2021/06/04 01:57:05;;;;;;;0.00;0.00;;;;;;;;;;5137552;27;20210;-78
2021/06/04 01:59:33;;;;;;;0.10;0.10;;;;;;;;;;5133219;27;20218;-78
2021/06/04 02:02:01;;;;;;;0.10;0.10;;;;;;;;;;5131551;27;20204;-77
2021/06/04 02:04:29;;;;;;;0.05;0.05;;;;;;;;;;5127044;28;20265;-77
2021/06/04 02:06:56;;;;;;;0.10;0.10;;;;;;;;;;5134230;27;20200;-78
2021/06/04 02:09:23;;;;;;;0.10;0.10;;;;;;;;;;5139409;27;20206;-78
2021/06/04 02:11:49;;;;;;;0.00;0.00;;;;;;;;;;5141752;27;20198;-77
2021/06/04 02:14:17;;;;;;;0.10;0.10;;;;;;;;;;5133030;27;20218;-78
2021/06/04 02:16:54;;;;;;;0.00;0.00;;;;;;;;;;5129317;27;20203;-77
2021/06/04 02:19:26;;;;;;;0.05;0.05;;;;;;;;;;5134771;27;20246;-78
2021/06/04 02:21:54;;;;;;;0.10;0.10;;;;;;;;;;5132810;27;20201;-77
2021/06/04 02:24:24;;;;;;;0.00;0.00;;;;;;;;;;5137406;27;20249;-78
2021/06/04 02:26:52;;;;;;;0.00;0.00;;;;;;;;;;5126482;27;20435;-77
2021/06/04 02:29:21;;;;;;;0.00;0.00;;;;;;;;;;5127142;27;20261;-77
2021/06/04 02:31:49;;;;;;;0.03;0.03;;;;;;;;;;5138346;27;20203;-78
2021/06/04 02:34:17;;;;;;;0.05;0.05;;;;;;;;;;5136889;27;20292;-77
2021/06/04 02:36:45;;;;;;;0.10;0.10;;;;;;;;;;5133745;27;20209;-77
2021/06/04 02:39:14;;;;;;;0.47;0.47;;;;;;;;;;5136301;27;20248;-77
2021/06/04 02:41:41;;;;;;;0.10;0.10;;;;;;;;;;5133023;27;20396;-77
2021/06/04 02:44:09;;;;;;;0.10;0.10;;;;;;;;;;5131045;27;20198;-77
2021/06/04 02:46:37;;;;;;;0.10;0.10;;;;;;;;;;5139433;27;20482;-78
2021/06/04 02:49:06;;;;;;;0.10;0.10;;;;;;;;;;5133697;27;20228;-78
2021/06/04 02:51:34;;;;;;;0.30;0.30;;;;;;;;;;5135833;27;20209;-77
2021/06/04 02:54:03;;;;;;;0.00;0.00;;;;;;;;;;5134229;27;20201;-78
2021/06/04 02:56:30;;;;;;;0.00;0.00;;;;;;;;;;5136398;27;20244;-78
2021/06/04 02:58:58;;;;;;;0.08;0.08;;;;;;;;;;5137735;27;20221;-77
2021/06/04 03:01:25;;;;;;;0.00;0.00;;;;;;;;;;5134948;27;20194;-78
2021/06/04 03:03:52;;;;;;;0.08;0.08;;;;;;;;;;5139792;27;20205;-78
2021/06/04 03:06:20;;;;;;;0.08;0.08;;;;;;;;;;5131605;27;20263;-79
2021/06/04 03:08:47;;;;;;;0.10;0.10;;;;;;;;;;5142067;27;20204;-79
2021/06/04 03:11:15;;;;;;;0.00;0.00;;;;;;;;;;5140989;27;20268;-77
2021/06/04 03:13:40;;;;;;;0.10;0.10;;;;;;;;;;5135210;27;20211;-77
2021/06/04 03:16:08;;;;;;;0.10;0.10;;;;;;;;;;5137430;27;20209;-78
2021/06/04 03:18:37;;;;;;;0.10;0.10;;;;;;;;;;5128031;27;20222;-78
2021/06/04 03:21:06;;;;;;;0.10;0.10;;;;;;;;;;5144994;27;20206;-78
2021/06/04 03:23:36;;;;;;;0.10;0.10;;;;;;;;;;5139960;27;20263;-78
2021/06/04 03:26:04;;;;;;;0.00;0.00;;;;;;;;;;5127745;27;20205;-77
2021/06/04 03:28:31;;;;;;;0.10;0.10;;;;;;;;;;5129763;27;20204;-79
2021/06/04 03:30:58;;;;;;;0.03;0.03;;;;;;;;;;5138701;27;20438;-79
2021/06/04 03:33:28;;;;;;;0.10;0.10;;;;;;;;;;5127232;27;20229;-78
2021/06/04 03:35:54;;;;;;;0.10;0.10;;;;;;;;;;5147704;27;20377;-79
2021/06/04 03:38:20;;;;;;;0.10;0.10;;;;;;;;;;5141735;27;20238;-78
2021/06/04 03:40:46;;;;;;;0.00;0.00;;;;;;;;;;5145129;27;20203;-79
2021/06/04 03:43:13;;;;;;;0.05;0.05;;;;;;;;;;5135444;27;20474;-78
2021/06/04 03:45:41;;;;;;;0.05;0.05;;;;;;;;;;5131008;27;20535;-78
2021/06/04 03:48:07;;;;;;;0.00;0.00;;;;;;;;;;5136295;27;20251;-79
2021/06/04 03:50:33;;;;;;;0.10;0.10;;;;;;;;;;5131638;27;20205;-79
2021/06/04 03:52:59;;;;;;;0.10;0.10;;;;;;;;;;5132548;27;20497;-77
2021/06/04 03:55:26;;;;;;;0.08;0.08;;;;;;;;;;5130168;27;20215;-80
2021/06/04 03:57:52;;;;;;;0.10;0.10;;;;;;;;;;5126625;27;20201;-77
2021/06/04 04:00:21;;;;;;;9.75;2.38;;;;;;;;;;5136426;27;20217;-78
2021/06/04 04:02:49;;;;;;;0.00;0.00;;;;;;;;;;5132190;27;20208;-77
2021/06/04 04:05:15;;;;;;;0.08;0.08;;;;;;;;;;5136275;27;20231;-77
2021/06/04 04:07:41;;;;;;;0.05;0.05;;;;;;;;;;5129999;27;20202;-77
2021/06/04 04:10:07;;;;;;;0.10;0.10;;;;;;;;;;5124913;27;20514;-78
2021/06/04 04:12:33;;;;;;;1.58;1.48;;;;;;;;;;5142603;27;20205;-78
2021/06/04 04:14:59;;;;;;;0.08;0.08;;;;;;;;;;5130314;27;20204;-78
2021/06/04 04:17:24;;;;;;;0.10;0.10;;;;;;;;;;5134135;27;20297;-77
2021/06/04 04:19:51;;;;;;;0.10;0.10;;;;;;;;;;5137782;27;20241;-78
2021/06/04 04:22:17;;;;;;;0.05;0.05;;;;;;;;;;5128100;27;20202;-77
2021/06/04 04:24:44;;;;;;;0.00;0.00;;;;;;;;;;5130122;27;20261;-78
2021/06/04 04:27:11;;;;;;;0.20;0.20;;;;;;;;;;5131561;28;20261;-78
2021/06/04 04:29:37;;;;;;;0.00;0.00;;;;;;;;;;5145282;27;20235;-77
2021/06/04 04:32:05;;;;;;;0.00;0.00;;;;;;;;;;5144697;27;20223;-76
2021/06/04 04:34:31;;;;;;;0.10;0.10;;;;;;;;;;5142454;28;20200;-79
2021/06/04 04:36:59;;;;;;;0.10;0.10;;;;;;;;;;5128348;28;20223;-77
2021/06/04 04:39:27;;;;;;;0.10;0.10;;;;;;;;;;5130491;28;20229;-77
2021/06/04 04:41:54;;;;;;;0.07;0.07;;;;;;;;;;5138767;28;20202;-77
2021/06/04 04:44:21;;;;;;;0.10;0.10;;;;;;;;;;5125514;28;20198;-75
2021/06/04 04:46:47;;;;;;;0.10;0.10;;;;;;;;;;5125723;28;20322;-78
2021/06/04 04:49:13;;;;;;;0.10;0.10;;;;;;;;;;5127911;28;20309;-77
2021/06/04 04:51:39;;;;;;;0.55;0.55;;;;;;;;;;5128531;28;20198;-77
2021/06/04 04:54:08;;;;;;;0.10;0.10;;;;;;;;;;5132376;27;20229;-78
2021/06/04 04:56:34;;;;;;;0.00;0.00;;;;;;;;;;5128722;28;20250;-78
2021/06/04 04:59:00;;;;;;;0.00;0.00;;;;;;;;;;5135306;27;20395;-78
2021/06/04 05:01:26;;;;;;;0.10;0.10;;;;;;;;;;5138550;27;20394;-78
2021/06/04 05:03:52;;;;;;;0.20;0.20;;;;;;;;;;5129191;27;20498;-78
2021/06/04 05:06:18;;;;;;;0.35;0.35;;;;;;;;;;5140281;27;20202;-77
2021/06/04 05:08:45;;;;;;;0.00;0.00;;;;;;;;;;5139237;27;20239;-77
2021/06/04 05:11:12;;;;;;;0.10;0.10;;;;;;;;;;5143348;27;20427;-77
2021/06/04 05:13:38;;;;;;;0.10;0.10;;;;;;;;;;5140033;27;20504;-77
2021/06/04 05:16:04;;;;;;;0.43;0.43;;;;;;;;;;5128302;27;20255;-77
2021/06/04 05:18:30;;;;;;;0.10;0.10;;;;;;;;;;5147953;27;20204;-79
2021/06/04 05:20:56;;;;;;;0.00;0.00;;;;;;;;;;5135485;27;20255;-75
2021/06/04 05:23:22;;;;;;;0.05;0.05;;;;;;;;;;5146788;27;20197;-77
2021/06/04 05:25:49;;;;;;;0.00;0.00;;;;;;;;;;5145972;27;20209;-78
2021/06/04 05:28:19;;;;;;;0.00;0.00;;;;;;;;;;5144257;27;20206;-77
2021/06/04 05:30:45;;;;;;;0.03;0.03;;;;;;;;;;5128165;28;20206;-77
2021/06/04 05:33:12;;;;;;;0.03;0.03;;;;;;;;;;5128395;27;20208;-77
2021/06/04 05:35:38;;;;;;;0.03;0.03;;;;;;;;;;5135488;27;20431;-78
2021/06/04 05:38:04;;;;;;;0.00;0.00;;;;;;;;;;5132505;27;20252;-78
2021/06/04 05:40:31;;;;;;;0.03;0.03;;;;;;;;;;5128039;28;20538;-77
2021/06/04 05:42:57;;;;;;;0.00;0.00;;;;;;;;;;5139613;27;20203;-79
2021/06/04 05:45:25;;;;;;;0.03;0.03;;;;;;;;;;5129917;27;20424;-77
2021/06/04 05:47:54;;;;;;;0.07;0.07;;;;;;;;;;5130792;27;20213;-80
2021/06/04 05:50:22;;;;;;;0.10;0.10;;;;;;;;;;5144926;27;20219;-79
2021/06/04 05:52:48;;;;;;;0.00;0.00;;;;;;;;;;5128300;27;20353;-77
2021/06/04 05:55:16;;;;;;;0.00;0.00;;;;;;;;;;5129919;27;20216;-77
2021/06/04 05:57:42;;;;;;;0.52;0.52;;;;;;;;;;5140665;27;20209;-76
2021/06/04 06:00:11;;;;;;;0.10;0.10;;;;;;;;;;5134833;27;20420;-78
2021/06/04 06:02:39;;;;;;;0.10;0.10;;;;;;;;;;5129395;27;20197;-78
2021/06/04 06:05:05;;;;;;;0.10;0.10;;;;;;;;;;5128785;27;20204;-76
2021/06/04 06:07:31;;;;;;;0.00;0.00;;;;;;;;;;5140442;27;20201;-75
2021/06/04 06:09:56;;;;;;;0.00;0.00;;;;;;;;;;5130645;27;20237;-74
2021/06/04 06:12:22;;;;;;;0.00;0.00;;;;;;;;;;5134431;27;20221;-77
2021/06/04 06:14:48;;;;;;;0.10;0.10;;;;;;;;;;5134849;27;20234;-77
2021/06/04 06:17:14;;;;;;;0.00;0.00;;;;;;;;;;5136643;27;20242;-76
2021/06/04 06:19:41;;;;;;;0.10;0.10;;;;;;;;;;5132313;27;20522;-77
2021/06/04 06:22:06;;;;;;;0.10;0.10;;;;;;;;;;5130696;27;20205;-79
2021/06/04 06:24:32;;;;;;;0.00;0.00;;;;;;;;;;5128807;27;20235;-76
2021/06/04 06:26:58;;;;;;;0.10;0.10;;;;;;;;;;5133123;27;20373;-78
2021/06/04 06:45:29;;;;;;;0.07;0.07;;;;;;;;;;5138958;27;20165;-69
2021/06/04 06:47:56;;;;;;;0.10;0.10;;;;;;;;;;5134529;27;20213;-69
2021/06/04 06:50:23;;;;;;;0.10;0.10;;;;;;;;;;5134036;27;20199;-69
2021/06/04 06:52:49;;;;;;;0.10;0.10;;;;;;;;;;5125398;28;20200;-69
2021/06/04 06:55:15;;;;;;;0.10;0.10;;;;;;;;;;5128248;27;20463;-69
2021/06/04 06:57:41;;;;;;;0.00;0.00;;;;;;;;;;5137629;27;20243;-69
2021/06/04 07:00:08;;;;;;;0.05;0.05;;;;;;;;;;5141187;27;20292;-69
2021/06/04 07:02:34;;;;;;;0.08;0.08;;;;;;;;;;5131622;27;20198;-69
2021/06/04 07:05:01;;;;;;;0.00;0.00;;;;;;;;;;5138552;27;20497;-69
2021/06/04 07:07:27;;;;;;;0.10;0.10;;;;;;;;;;5150211;27;20209;-69
2021/06/04 07:09:52;;;;;;;0.10;0.10;;;;;;;;;;5133111;27;20207;-68
2021/06/04 07:12:18;;;;;;;0.10;0.10;;;;;;;;;;5149624;27;20200;-68
2021/06/04 07:14:44;;;;;;;0.00;0.00;;;;;;;;;;5129564;27;20278;-69
2021/06/04 07:17:10;;;;;;;0.10;0.10;;;;;;;;;;5131160;27;20298;-68
2021/06/04 07:19:35;;;;;;;0.10;0.10;;;;;;;;;;5134654;27;20222;-68
2021/06/04 07:22:03;;;;;;;0.00;0.00;;;;;;;;;;5136396;27;20201;-67
2021/06/04 07:24:29;;;;;;;0.00;0.00;;;;;;;;;;5138248;27;20216;-68
2021/06/04 07:26:58;;;;;;;0.00;0.00;;;;;;;;;;5145526;27;20408;-69
2021/06/04 07:29:25;;;;;;;0.15;0.15;;;;;;;;;;5134091;27;20201;-71
2021/06/04 07:31:51;;;;;;;0.10;0.10;;;;;;;;;;5134479;27;20269;-68
2021/06/04 07:34:17;;;;;;;0.10;0.10;;;;;;;;;;5128955;27;20429;-67
2021/06/04 07:36:45;;;;;;;0.00;0.00;;;;;;;;;;5136727;27;20268;-68
2021/06/04 07:39:14;;;;;;;0.20;0.20;;;;;;;;;;5149883;27;20225;-69
2021/06/04 07:41:40;;;;;;;0.00;0.00;;;;;;;;;;5131117;27;20501;-69
2021/06/04 07:44:06;;;;;;;0.08;0.08;;;;;;;;;;5138423;27;20206;-70
2021/06/04 07:46:33;;;;;;;0.10;0.10;;;;;;;;;;5137633;27;20470;-69
2021/06/04 07:48:59;;;;;;;0.00;0.00;;;;;;;;;;5130890;27;20300;-69
2021/06/04 07:51:26;;;;;;;1.88;1.88;;;;;;;;;;5134983;27;20562;-68
2021/06/04 07:53:52;;;;;;;0.10;0.10;;;;;;;;;;5137462;27;20275;-69
2021/06/04 07:56:19;;;;;;;0.00;0.00;;;;;;;;;;5140435;27;20251;-69
2021/06/04 07:58:45;;;;;;;0.00;0.00;;;;;;;;;;5139200;27;20207;-68
2021/06/04 08:01:11;;;;;;;0.08;0.08;;;;;;;;;;5143132;27;20197;-69
2021/06/04 08:03:38;;;;;;;0.10;0.10;;;;;;;;;;5142653;27;20201;-69
2021/06/04 08:06:05;;;;;;;0.10;0.10;;;;;;;;;;5129018;27;20206;-69
2021/06/04 08:08:31;;;;;;;0.10;0.10;;;;;;;;;;5120121;28;20234;-68
2021/06/04 08:10:57;;;;;;;0.03;0.03;;;;;;;;;;5134087;27;20207;-68
2021/06/04 08:13:25;;;;;;;12.63;4.85;;;;;;;;;;5134057;27;20198;-67
2021/06/04 08:15:52;;;;;;;0.10;0.10;;;;;;;;;;5130584;27;20206;-69
2021/06/04 08:18:20;;;;;;;0.10;0.10;;;;;;;;;;5125504;27;20198;-68
2021/06/04 08:20:47;;;;;;;0.10;0.10;;;;;;;;;;5127520;27;20223;-69
2021/06/04 08:23:15;;;;;;;0.10;0.10;;;;;;;;;;5131148;27;20273;-70
2021/06/04 08:25:42;;;;;;;0.00;0.00;;;;;;;;;;5135070;27;20207;-68
2021/06/04 08:28:08;;;;;;;0.00;0.00;;;;;;;;;;5131228;27;20249;-68
2021/06/04 08:30:36;;;;;;;0.00;0.00;;;;;;;;;;5132386;27;20213;-70
2021/06/04 08:33:03;;;;;;;0.00;0.00;;;;;;;;;;5127659;28;20548;-68
2021/06/04 08:35:29;;;;;;;0.08;0.08;;;;;;;;;;5123461;28;20209;-70
2021/06/04 08:37:56;;;;;;;11.98;11.25;;;;;;;;;;5137423;27;20239;-68
2021/06/04 08:40:24;;;;;;;0.60;0.60;;;;;;;;;;5133973;28;20220;-68
2021/06/04 08:42:58;;;;;;;0.05;0.05;;;;;;;;;;5127479;28;20202;-68
2021/06/04 08:45:34;;;;;;;0.10;0.10;;;;;;;;;;5132791;27;20198;-68
2021/06/04 08:48:05;;;;;;;0.10;0.10;;;;;;;;;;5130782;27;20444;-69
2021/06/04 08:50:35;;;;;;;0.00;0.00;;;;;;;;;;5131388;28;20261;-69
2021/06/04 08:53:08;;;;;;;0.00;0.00;;;;;;;;;;5134728;27;20197;-67
2021/06/04 08:55:36;;;;;;;0.00;0.00;;;;;;;;;;5145224;27;20221;-68
2021/06/04 08:58:07;;;;;;;0.10;0.10;;;;;;;;;;5144406;27;20452;-69
2021/06/04 09:00:34;;;;;;;0.20;0.20;;;;;;;;;;5125577;28;20210;-68
2021/06/04 09:03:05;;;;;;;0.43;0.43;;;;;;;;;;5140744;28;20226;-69
2021/06/04 09:05:36;;;;;;;0.00;0.00;;;;;;;;;;5143766;28;20217;-69
2021/06/04 09:08:03;;;;;;;0.05;0.05;;;;;;;;;;5124364;28;20202;-70
2021/06/04 09:10:32;;;;;;;0.10;0.10;;;;;;;;;;5126736;28;20198;-70
2021/06/04 09:13:02;;;;;;;0.00;0.00;;;;;;;;;;5136763;28;20197;-69
2021/06/04 09:15:30;;;;;;;0.00;0.00;;;;;;;;;;5125819;28;20261;-70
2021/06/04 09:17:59;;;;;;;0.10;0.10;;;;;;;;;;5130106;27;20494;-69
2021/06/04 09:20:30;;;;;;;0.10;0.10;;;;;;;;;;5140254;28;20537;-69
2021/06/04 09:22:58;;;;;;;0.00;0.00;;;;;;;;;;5132193;28;20272;-69
2021/06/04 09:25:24;;;;;;;0.10;0.10;;;;;;;;;;5134833;28;20206;-69
2021/06/04 09:28:10;;;;;;;0.05;0.05;;;;;;;;;;5137396;28;20200;-68
2021/06/04 09:30:39;;;;;;;0.10;0.10;;;;;;;;;;5133662;28;20202;-70
2021/06/04 09:33:07;;;;;;;0.10;0.10;;;;;;;;;;5131228;27;20209;-68
2021/06/04 09:35:33;;;;;;;0.10;0.10;;;;;;;;;;5128775;27;20213;-69
2021/06/04 09:38:14;;;;;;;0.00;0.00;;;;;;;;;;5151126;27;20221;-70
2021/06/04 09:40:40;;;;;;;0.10;0.10;;;;;;;;;;5129354;27;20215;-69
2021/06/04 09:43:12;;;;;;;0.10;0.10;;;;;;;;;;5129014;27;20210;-69
2021/06/04 09:45:42;;;;;;;0.10;0.10;;;;;;;;;;5132597;27;20203;-70
2021/06/04 09:48:10;;;;;;;0.20;0.20;;;;;;;;;;5129710;27;20254;-71
2021/06/04 09:50:42;;;;;;;0.10;0.10;;;;;;;;;;5132226;27;20235;-69
2021/06/04 09:53:12;;;;;;;0.08;0.08;;;;;;;;;;5135548;27;20548;-68
2021/06/04 09:55:39;;;;;;;0.00;0.00;;;;;;;;;;5138797;27;20224;-70
2021/06/04 09:58:16;;;;;;;0.10;0.10;;;;;;;;;;5138505;27;20204;-67
2021/06/04 10:00:45;;;;;;;0.10;0.10;;;;;;;;;;5131736;27;20209;-69
2021/06/04 10:03:22;;;;;;;0.08;0.08;;;;;;;;;;5127303;27;20207;-69
2021/06/04 10:05:48;;;;;;;0.00;0.00;;;;;;;;;;5145004;27;20201;-69
2021/06/04 10:08:25;;;;;;;0.00;0.00;;;;;;;;;;5135288;27;20246;-69
2021/06/04 10:11:08;;;;;;;0.10;0.10;;;;;;;;;;5140059;27;20193;-69
2021/06/04 10:13:38;;;;;;;0.00;0.00;;;;;;;;;;5139975;27;20231;-71
2021/06/04 10:16:20;;;;;;;0.10;0.10;;;;;;;;;;5130809;27;20200;-70
2021/06/04 10:18:46;;;;;;;0.08;0.08;;;;;;;;;;5139131;27;20237;-70
2021/06/04 10:21:13;;;;;;;0.10;0.10;;;;;;;;;;5138210;27;20206;-70
2021/06/04 10:23:40;;;;;;;0.08;0.08;;;;;;;;;;5133758;27;20207;-69
2021/06/04 10:26:18;;;;;;;0.00;0.00;;;;;;;;;;5128892;27;20199;-69
2021/06/04 10:28:45;;;;;;;0.00;0.00;;;;;;;;;;5131682;27;20209;-69
2021/06/04 10:31:26;;;;;;;0.00;0.00;;;;;;;;;;5131511;27;20414;-69
2021/06/04 10:33:55;;;;;;;0.00;0.00;;;;;;;;;;5134414;27;20487;-70
2021/06/04 10:36:25;;;;;;;0.00;0.00;;;;;;;;;;5130404;27;20209;-69
2021/06/04 10:38:53;;;;;;;0.00;0.00;;;;;;;;;;5126477;27;20237;-70
2021/06/04 10:41:24;;;;;;;0.00;0.00;;;;;;;;;;5126999;27;20232;-69
2021/06/04 10:43:58;;;;;;;0.08;0.08;;;;;;;;;;5138323;27;20199;-70
2021/06/04 10:46:30;;;;;;;0.05;0.05;;;;;;;;;;5127447;27;20195;-69
2021/06/04 10:49:01;;;;;;;0.10;0.10;;;;;;;;;;5142043;27;20524;-69
2021/06/04 10:51:29;;;;;;;0.10;0.10;;;;;;;;;;5139067;27;20201;-65
2021/06/04 10:54:00;;;;;;;0.00;0.00;;;;;;;;;;5142520;27;20210;-65
2021/06/04 10:56:30;;;;;;;0.10;0.10;;;;;;;;;;5140057;27;20262;-65
2021/06/04 10:59:01;;;;;;;0.10;0.10;;;;;;;;;;5131070;27;20203;-64
2021/06/04 11:01:29;;;;;;;0.00;0.00;;;;;;;;;;5132535;27;20201;-64
2021/06/04 11:03:59;;;;;;;0.10;0.10;;;;;;;;;;5132481;27;20215;-64
2021/06/04 11:06:27;;;;;;;0.00;0.00;;;;;;;;;;5132927;27;20199;-64
2021/06/04 11:08:58;;;;;;;0.00;0.00;;;;;;;;;;5127832;27;20203;-64
2021/06/04 11:11:35;;;;;;;0.00;0.00;;;;;;;;;;5137948;27;20230;-65
2021/06/04 11:14:05;;;;;;;0.10;0.10;;;;;;;;;;5131511;27;20279;-64
2021/06/04 11:16:36;;;;;;;0.00;0.00;;;;;;;;;;5134707;27;20195;-65
2021/06/04 11:19:14;;;;;;;0.10;0.10;;;;;;;;;;5132579;27;20207;-63
2021/06/04 11:21:42;;;;;;;0.00;0.00;;;;;;;;;;5129678;27;20202;-64
2021/06/04 11:24:11;;;;;;;0.00;0.00;;;;;;;;;;5129549;27;20270;-65
2021/06/04 11:26:39;;;;;;;0.00;0.00;;;;;;;;;;5130155;27;20494;-64
2021/06/04 11:29:07;;;;;;;0.00;0.00;;;;;;;;;;5141805;27;20198;-65
2021/06/04 11:31:41;;;;;;;0.00;0.00;;;;;;;;;;5125735;27;20294;-65
2021/06/04 11:34:16;;;;;;;0.00;0.00;;;;;;;;;;5138016;27;20196;-65
2021/06/04 11:36:45;;;;;;;0.00;0.00;;;;;;;;;;5142384;27;20534;-65
2021/06/04 11:39:15;;;;;;;0.00;0.00;;;;;;;;;;5136137;27;20225;-65
2021/06/04 11:41:42;;;;;;;0.10;0.10;;;;;;;;;;5127288;27;20265;-65
2021/06/04 11:44:15;;;;;;;0.00;0.00;;;;;;;;;;5143862;27;20204;-64
2021/06/04 11:46:41;;;;;;;0.00;0.00;;;;;;;;;;5135656;27;20202;-67
2021/06/04 11:49:10;;;;;;;0.00;0.00;;;;;;;;;;5135998;27;20278;-66
2021/06/04 11:51:41;;;;;;;0.00;0.00;;;;;;;;;;5133928;27;20213;-66
2021/06/04 11:54:27;;;;;;;0.85;0.85;;;;;;;;;;5137728;27;20194;-68
2021/06/04 11:56:57;;;;;;;0.10;0.10;;;;;;;;;;5137593;27;20238;-65
2021/06/04 11:59:41;;;;;;;0.00;0.00;;;;;;;;;;5143636;27;20261;-65
2021/06/04 12:02:07;;;;;;;0.10;0.10;;;;;;;;;;5140120;27;20478;-66
2021/06/04 12:04:34;;;;;;;0.00;0.00;;;;;;;;;;5135745;27;20203;-64
2021/06/04 12:07:02;;;;;;;0.00;0.00;;;;;;;;;;5125197;27;20208;-68
2021/06/04 12:09:45;;;;;;;0.00;0.00;;;;;;;;;;5141568;27;20194;-68
2021/06/04 12:12:30;;;;;;;0.00;0.00;;;;;;;;;;5124105;28;20204;-68
2021/06/04 12:15:14;;;;;;;0.20;0.20;;;;;;;;;;5140448;27;20276;-69
2021/06/04 12:17:41;;;;;;;0.00;0.00;;;;;;;;;;5130346;27;20568;-68
2021/06/04 12:20:37;;;;;;;0.00;0.00;;;;;;;;;;5138194;27;20219;-67
2021/06/04 12:23:05;;;;;;;0.00;0.00;;;;;;;;;;5094608;28;20204;-70
2021/06/04 12:25:40;;;;;;;0.13;0.13;;;;;;;;;;5148078;27;20259;-67
2021/06/04 12:28:08;;;;;;;0.05;0.05;;;;;;;;;;5148487;27;20508;-68
2021/06/04 12:30:51;;;;;;;0.00;0.00;;;;;;;;;;5156298;27;20227;-68
2021/06/04 12:33:36;;;;;;;0.00;0.00;;;;;;;;;;5155019;27;20202;-68
2021/06/04 12:36:02;;;;;;;0.00;0.00;;;;;;;;;;5153676;27;20202;-67
2021/06/04 12:38:33;;;;;;;0.00;0.00;;;;;;;;;;5158367;27;20257;-68
2021/06/04 12:41:00;;;;;;;0.10;0.10;;;;;;;;;;5151494;27;20277;-69
2021/06/04 12:43:27;;;;;;;0.00;0.00;;;;;;;;;;5149753;27;20211;-68
2021/06/04 12:45:59;;;;;;;0.00;0.00;;;;;;;;;;5155725;27;20206;-68
2021/06/04 12:48:26;;;;;;;0.00;0.00;;;;;;;;;;5152752;27;20533;-68
2021/06/04 12:51:11;;;;;;;0.30;0.30;;;;;;;;;;5153850;27;20236;-67
2021/06/04 12:53:40;;;;;;;0.00;0.00;;;;;;;;;;5150286;27;20263;-67
2021/06/04 12:56:09;;;;;;;0.00;0.00;;;;;;;;;;5143006;27;20213;-68
2021/06/04 12:58:36;;;;;;;0.00;0.00;;;;;;;;;;5153626;27;20524;-68
2021/06/04 13:01:06;;;;;;;0.10;0.10;;;;;;;;;;5145800;27;20427;-69
2021/06/04 13:03:34;;;;;;;0.00;0.00;;;;;;;;;;5157018;27;20514;-69
2021/06/04 13:06:00;;;;;;;1.65;1.65;;;;;;;;;;5156386;27;20227;-69
2021/06/04 13:08:31;;;;;;;0.00;0.00;;;;;;;;;;5150599;27;20319;-69
2021/06/04 13:11:00;;;;;;;0.00;0.00;;;;;;;;;;5152860;27;20259;-70
2021/06/04 13:13:29;;;;;;;0.10;0.10;;;;;;;;;;5160747;27;20211;-68
2021/06/04 13:15:56;;;;;;;0.00;0.00;;;;;;;;;;5157466;27;20197;-68
2021/06/04 13:18:24;;;;;;;0.10;0.10;;;;;;;;;;5161217;27;20204;-68
2021/06/04 13:20:51;;;;;;;0.17;0.17;;;;;;;;;;5150737;27;20228;-68
2021/06/04 13:23:21;;;;;;;0.00;0.00;;;;;;;;;;5148238;27;20201;-67
2021/06/04 13:25:47;;;;;;;0.00;0.00;;;;;;;;;;5157351;27;20273;-68
2021/06/04 13:28:16;;;;;;;0.10;0.10;;;;;;;;;;5162588;27;20209;-67
2021/06/04 13:30:44;;;;;;;0.00;0.00;;;;;;;;;;5164946;27;20201;-66
2021/06/04 13:33:13;;;;;;;0.00;0.00;;;;;;;;;;5152761;27;20224;-67
2021/06/04 13:35:41;;;;;;;0.00;0.00;;;;;;;;;;5166158;27;20251;-67
2021/06/04 13:38:10;;;;;;;0.05;0.05;;;;;;;;;;5151263;27;20229;-67
2021/06/04 13:40:37;;;;;;;0.00;0.00;;;;;;;;;;5156647;27;20224;-67
2021/06/04 13:43:04;;;;;;;0.00;0.00;;;;;;;;;;5165835;27;20213;-67
2021/06/04 13:45:33;;;;;;;0.10;0.10;;;;;;;;;;5160570;27;20212;-67
2021/06/04 13:48:13;;;;;;;0.00;0.00;;;;;;;;;;5152581;27;20223;-67
2021/06/04 13:50:48;;;;;;;0.08;0.08;;;;;;;;;;5150986;27;20232;-67
2021/06/04 13:53:44;;;;;;;0.00;0.00;;;;;;;;;;5159843;27;20543;-67
2021/06/04 13:56:12;;;;;;;0.00;0.00;;;;;;;;;;5057659;28;20234;-67
2021/06/04 13:58:39;;;;;;;0.10;0.10;;;;;;;;;;5142762;27;20441;-68
2021/06/04 14:01:11;;;;;;;0.00;0.00;;;;;;;;;;5166656;27;20217;-68
2021/06/04 14:03:41;;;;;;;0.00;0.00;;;;;;;;;;5166226;27;20209;-67
2021/06/04 14:06:15;;;;;;;0.10;0.10;;;;;;;;;;5147776;27;20395;-67
2021/06/04 14:08:41;;;;;;;0.05;0.05;;;;;;;;;;5160868;27;20201;-68
2021/06/04 14:11:15;;;;;;;0.00;0.00;;;;;;;;;;5166258;27;20196;-68
2021/06/04 14:13:55;;;;;;;0.00;0.00;;;;;;;;;;5165785;27;20224;-68
2021/06/04 14:16:33;;;;;;;0.00;0.00;;;;;;;;;;5150988;27;20192;-68
2021/06/04 14:18:59;;;;;;;0.10;0.10;;;;;;;;;;5163375;27;20362;-68
2021/06/04 14:21:43;;;;;;;0.00;0.00;;;;;;;;;;5161860;27;20296;-67
2021/06/04 14:24:27;;;;;;;0.10;0.10;;;;;;;;;;5156251;27;20586;-68
2021/06/04 14:26:54;;;;;;;0.00;0.00;;;;;;;;;;5167439;27;20395;-69
2021/06/04 14:29:23;;;;;;;0.03;0.03;;;;;;;;;;5162427;27;20200;-67
2021/06/04 14:31:54;;;;;;;0.00;0.00;;;;;;;;;;5162263;27;20201;-68
2021/06/04 14:34:22;;;;;;;0.00;0.00;;;;;;;;;;5148077;27;20542;-68
2021/06/04 14:36:48;;;;;;;0.00;0.00;;;;;;;;;;5148551;27;20213;-68
2021/06/04 14:39:23;;;;;;;0.00;0.00;;;;;;;;;;5147152;27;20254;-67
2021/06/04 14:41:49;;;;;;;0.00;0.00;;;;;;;;;;5154307;27;20204;-68
2021/06/04 14:44:15;;;;;;;0.00;0.00;;;;;;;;;;5152644;27;20268;-68
2021/06/04 14:46:41;;;;;;;0.03;0.03;;;;;;;;;;5166955;27;20204;-68
2021/06/04 14:49:10;;;;;;;0.00;0.00;;;;;;;;;;5166991;27;20208;-67
2021/06/04 14:51:37;;;;;;;0.00;0.00;;;;;;;;;;5152776;27;20360;-69
2021/06/04 14:54:03;;;;;;;0.00;0.00;;;;;;;;;;5167420;27;20260;-68
2021/06/04 14:56:29;;;;;;;0.00;0.00;;;;;;;;;;5158355;27;20553;-68
2021/06/04 14:58:55;;;;;;;0.00;0.00;;;;;;;;;;5162870;27;20204;-67
2021/06/04 15:01:22;;;;;;;0.00;0.00;;;;;;;;;;5156844;27;20221;-68
2021/06/04 15:03:49;;;;;;;0.00;0.00;;;;;;;;;;5160221;27;20211;-67
2021/06/04 15:06:16;;;;;;;0.00;0.00;;;;;;;;;;5161081;27;20511;-68
2021/06/04 15:08:44;;;;;;;0.00;0.00;;;;;;;;;;5166915;27;20348;-69